sensor_id;sensor_type;location;lat;lon;timestamp;pressure;altitude;pressure_sealevel;temperature;humidity
48555;BME280;34336;48.270;16.716;2023-05-22T00:01:29;109325.25;;;18.16;97.18
48555;BME280;34336;48.270;16.716;2023-05-22T00:03:55;109325.25;;;18.16;97.53
48555;BME280;34336;48.270;16.716;2023-05-22T00:06:22;109325.25;;;18.16;97.35
48555;BME280;34336;48.270;16.716;2023-05-22T00:08:51;109325.25;;;18.16;97.56
48555;BME280;34336;48.270;16.716;2023-05-22T00:11:17;109325.25;;;18.16;98.02
48555;BME280;34336;48.270;16.716;2023-05-22T00:13:44;109325.25;;;18.16;98.54
48555;BME280;34336;48.270;16.716;2023-05-22T00:16:11;109325.25;;;18.16;98.77
48555;BME280;34336;48.270;16.716;2023-05-22T00:18:38;109325.25;;;18.16;98.94
48555;BME280;34336;48.270;16.716;2023-05-22T00:21:08;109325.25;;;18.16;98.86
48555;BME280;34336;48.270;16.716;2023-05-22T00:23:34;109325.25;;;18.16;99.09
48555;BME280;34336;48.270;16.716;2023-05-22T00:26:01;109325.25;;;18.16;99.53
48555;BME280;34336;48.270;16.716;2023-05-22T00:28:28;109325.25;;;18.16;99.48
48555;BME280;34336;48.270;16.716;2023-05-22T00:30:54;109325.25;;;18.16;99.78
48555;BME280;34336;48.270;16.716;2023-05-22T00:33:21;109325.25;;;18.16;99.77
48555;BME280;34336;48.270;16.716;2023-05-22T00:35:48;109325.25;;;18.16;100.00
48555;BME280;34336;48.270;16.716;2023-05-22T00:38:26;109325.25;;;18.16;100.00
48555;BME280;34336;48.270;16.716;2023-05-22T00:40:53;109325.25;;;18.16;100.00
48555;BME280;34336;48.270;16.716;2023-05-22T00:43:20;109325.25;;;18.16;100.00
48555;BME280;34336;48.270;16.716;2023-05-22T00:45:46;109325.25;;;18.16;100.00
48555;BME280;34336;48.270;16.716;2023-05-22T00:48:13;109325.25;;;18.16;100.00
48555;BME280;34336;48.270;16.716;2023-05-22T00:50:41;109325.25;;;18.16;100.00
48555;BME280;34336;48.270;16.716;2023-05-22T00:53:07;109325.25;;;18.16;100.00
48555;BME280;34336;48.270;16.716;2023-05-22T00:55:35;109325.25;;;18.16;100.00
48555;BME280;34336;48.270;16.716;2023-05-22T00:58:02;109325.25;;;18.16;99.16
48555;BME280;34336;48.270;16.716;2023-05-22T01:00:36;109325.25;;;18.16;99.54
48555;BME280;34336;48.270;16.716;2023-05-22T01:03:04;109325.25;;;18.16;100.00
48555;BME280;34336;48.270;16.716;2023-05-22T01:05:33;109325.25;;;18.16;100.00
48555;BME280;34336;48.270;16.716;2023-05-22T01:08:00;109325.25;;;18.16;100.00
48555;BME280;34336;48.270;16.716;2023-05-22T01:10:26;109325.25;;;18.16;100.00
48555;BME280;34336;48.270;16.716;2023-05-22T01:21:05;109325.25;;;18.16;100.00
48555;BME280;34336;48.270;16.716;2023-05-22T01:29:15;109325.25;;;18.16;100.00
48555;BME280;34336;48.270;16.716;2023-05-22T01:31:45;109325.25;;;18.16;100.00
48555;BME280;34336;48.270;16.716;2023-05-22T01:34:13;109325.25;;;18.16;100.00
48555;BME280;34336;48.270;16.716;2023-05-22T01:36:43;109325.25;;;18.16;100.00
48555;BME280;34336;48.270;16.716;2023-05-22T01:39:11;109325.25;;;18.16;100.00
48555;BME280;34336;48.270;16.716;2023-05-22T01:41:38;109325.25;;;18.16;100.00
48555;BME280;34336;48.270;16.716;2023-05-22T01:44:05;109325.25;;;18.16;100.00
48555;BME280;34336;48.270;16.716;2023-05-22T01:46:32;109325.25;;;18.16;100.00
48555;BME280;34336;48.270;16.716;2023-05-22T01:48:59;109325.25;;;18.16;100.00
48555;BME280;34336;48.270;16.716;2023-05-22T01:51:37;109325.25;;;18.16;100.00
48555;BME280;34336;48.270;16.716;2023-05-22T01:56:38;109325.25;;;18.16;100.00
48555;BME280;34336;48.270;16.716;2023-05-22T01:59:13;109325.25;;;18.16;100.00
48555;BME280;34336;48.270;16.716;2023-05-22T02:01:43;109325.25;;;18.16;100.00
48555;BME280;34336;48.270;16.716;2023-05-22T02:04:11;109325.25;;;18.16;100.00
48555;BME280;34336;48.270;16.716;2023-05-22T02:06:41;109325.25;;;18.16;100.00
48555;BME280;34336;48.270;16.716;2023-05-22T02:09:08;109325.25;;;18.16;100.00
48555;BME280;34336;48.270;16.716;2023-05-22T02:11:37;109325.25;;;18.16;100.00
48555;BME280;34336;48.270;16.716;2023-05-22T02:14:05;109325.25;;;18.16;100.00
48555;BME280;34336;48.270;16.716;2023-05-22T02:16:34;109325.25;;;18.16;100.00
48555;BME280;34336;48.270;16.716;2023-05-22T02:19:01;109325.25;;;18.16;100.00
48555;BME280;34336;48.270;16.716;2023-05-22T02:21:34;109325.25;;;18.16;100.00
48555;BME280;34336;48.270;16.716;2023-05-22T02:24:01;109325.25;;;18.16;100.00
48555;BME280;34336;48.270;16.716;2023-05-22T02:26:28;109325.25;;;18.16;100.00
48555;BME280;34336;48.270;16.716;2023-05-22T02:28:55;109325.25;;;18.16;100.00
48555;BME280;34336;48.270;16.716;2023-05-22T02:31:23;109325.25;;;18.16;100.00
48555;BME280;34336;48.270;16.716;2023-05-22T02:33:50;109325.25;;;18.16;100.00
48555;BME280;34336;48.270;16.716;2023-05-22T02:36:18;109325.25;;;18.16;100.00
48555;BME280;34336;48.270;16.716;2023-05-22T02:38:46;109325.25;;;18.16;100.00
48555;BME280;34336;48.270;16.716;2023-05-22T02:41:12;109325.25;;;18.16;100.00
48555;BME280;34336;48.270;16.716;2023-05-22T02:43:39;109325.25;;;18.16;100.00
48555;BME280;34336;48.270;16.716;2023-05-22T02:46:06;109325.25;;;18.16;100.00
48555;BME280;34336;48.270;16.716;2023-05-22T02:48:32;109325.25;;;18.16;100.00
48555;BME280;34336;48.270;16.716;2023-05-22T02:50:59;109325.25;;;18.16;100.00
48555;BME280;34336;48.270;16.716;2023-05-22T02:53:26;109325.25;;;18.16;100.00
48555;BME280;34336;48.270;16.716;2023-05-22T02:55:53;109325.25;;;18.16;100.00
48555;BME280;34336;48.270;16.716;2023-05-22T02:58:24;109325.25;;;18.16;100.00
48555;BME280;34336;48.270;16.716;2023-05-22T03:00:51;109325.25;;;18.16;100.00
48555;BME280;34336;48.270;16.716;2023-05-22T03:03:18;109325.25;;;18.16;100.00
48555;BME280;34336;48.270;16.716;2023-05-22T03:05:45;109325.25;;;18.16;100.00
48555;BME280;34336;48.270;16.716;2023-05-22T03:08:11;109325.25;;;18.16;100.00
48555;BME280;34336;48.270;16.716;2023-05-22T03:10:40;109325.25;;;18.16;100.00
48555;BME280;34336;48.270;16.716;2023-05-22T03:13:07;109325.25;;;18.16;100.00
48555;BME280;34336;48.270;16.716;2023-05-22T03:15:34;109325.25;;;18.16;100.00
48555;BME280;34336;48.270;16.716;2023-05-22T03:18:09;109325.25;;;18.16;100.00
48555;BME280;34336;48.270;16.716;2023-05-22T03:20:37;109325.25;;;18.16;100.00
48555;BME280;34336;48.270;16.716;2023-05-22T03:23:04;109325.25;;;18.16;100.00
48555;BME280;34336;48.270;16.716;2023-05-22T03:25:32;109325.25;;;18.16;100.00
48555;BME280;34336;48.270;16.716;2023-05-22T03:27:59;109325.25;;;18.16;100.00
48555;BME280;34336;48.270;16.716;2023-05-22T03:30:29;109325.25;;;18.16;100.00
48555;BME280;34336;48.270;16.716;2023-05-22T03:33:07;109325.25;;;18.16;100.00
48555;BME280;34336;48.270;16.716;2023-05-22T03:35:34;109325.25;;;18.16;100.00
48555;BME280;34336;48.270;16.716;2023-05-22T03:38:01;109325.25;;;18.16;100.00
48555;BME280;34336;48.270;16.716;2023-05-22T03:40:28;109325.25;;;18.16;100.00
48555;BME280;34336;48.270;16.716;2023-05-22T03:42:55;109325.25;;;18.16;100.00
48555;BME280;34336;48.270;16.716;2023-05-22T03:45:22;109325.25;;;18.16;100.00
48555;BME280;34336;48.270;16.716;2023-05-22T03:47:49;109325.25;;;18.16;100.00
48555;BME280;34336;48.270;16.716;2023-05-22T03:50:16;109325.25;;;18.16;100.00
48555;BME280;34336;48.270;16.716;2023-05-22T03:52:43;109325.25;;;18.16;100.00
48555;BME280;34336;48.270;16.716;2023-05-22T03:55:10;109325.25;;;18.16;98.97
48555;BME280;34336;48.270;16.716;2023-05-22T03:57:37;109325.25;;;18.16;97.79
48555;BME280;34336;48.270;16.716;2023-05-22T04:00:04;109325.25;;;18.16;97.55
48555;BME280;34336;48.270;16.716;2023-05-22T04:02:38;109325.25;;;18.16;97.26
48555;BME280;34336;48.270;16.716;2023-05-22T04:05:05;109325.25;;;18.16;97.28
48555;BME280;34336;48.270;16.716;2023-05-22T04:07:32;109325.25;;;18.16;96.90
48555;BME280;34336;48.270;16.716;2023-05-22T04:09:59;109325.25;;;18.16;95.62
48555;BME280;34336;48.270;16.716;2023-05-22T04:12:26;109325.25;;;18.16;94.78
48555;BME280;34336;48.270;16.716;2023-05-22T04:14:53;109325.25;;;18.16;92.29
48555;BME280;34336;48.270;16.716;2023-05-22T04:17:19;109325.25;;;18.16;80.17
48555;BME280;34336;48.270;16.716;2023-05-22T04:19:46;109325.25;;;18.16;70.27
48555;BME280;34336;48.270;16.716;2023-05-22T04:22:13;109325.25;;;18.16;63.76
48555;BME280;34336;48.270;16.716;2023-05-22T04:24:39;109325.25;;;18.16;61.89
48555;BME280;34336;48.270;16.716;2023-05-22T04:27:06;109325.25;;;18.16;58.64
48555;BME280;34336;48.270;16.716;2023-05-22T04:29:33;109325.25;;;18.16;58.38
48555;BME280;34336;48.270;16.716;2023-05-22T04:32:01;109325.25;;;18.16;55.52
48555;BME280;34336;48.270;16.716;2023-05-22T04:34:28;109325.25;;;18.16;51.94
48555;BME280;34336;48.270;16.716;2023-05-22T04:36:55;109325.25;;;18.16;51.44
48555;BME280;34336;48.270;16.716;2023-05-22T04:39:22;109325.25;;;18.16;53.83
48555;BME280;34336;48.270;16.716;2023-05-22T04:41:51;109325.25;;;18.16;52.36
48555;BME280;34336;48.270;16.716;2023-05-22T04:44:18;109325.25;;;18.16;51.65
48555;BME280;34336;48.270;16.716;2023-05-22T04:46:50;109325.25;;;18.16;49.15
48555;BME280;34336;48.270;16.716;2023-05-22T04:49:16;109325.25;;;18.16;46.97
48555;BME280;34336;48.270;16.716;2023-05-22T04:51:43;109325.25;;;18.16;44.99
48555;BME280;34336;48.270;16.716;2023-05-22T04:54:10;109325.25;;;18.16;46.11
48555;BME280;34336;48.270;16.716;2023-05-22T04:56:38;109325.25;;;18.16;43.75
48555;BME280;34336;48.270;16.716;2023-05-22T04:59:04;109325.25;;;18.16;43.96
48555;BME280;34336;48.270;16.716;2023-05-22T05:01:36;109325.25;;;18.16;43.42
48555;BME280;34336;48.270;16.716;2023-05-22T05:04:03;109325.25;;;18.16;41.33
48555;BME280;34336;48.270;16.716;2023-05-22T05:06:30;109325.25;;;18.16;40.95
48555;BME280;34336;48.270;16.716;2023-05-22T05:08:57;109325.25;;;18.16;41.19
48555;BME280;34336;48.270;16.716;2023-05-22T05:11:24;109325.25;;;18.16;42.77
48555;BME280;34336;48.270;16.716;2023-05-22T05:13:51;109325.25;;;18.16;41.82
48555;BME280;34336;48.270;16.716;2023-05-22T05:16:17;109325.25;;;18.16;40.25
48555;BME280;34336;48.270;16.716;2023-05-22T05:18:45;109325.25;;;18.16;39.74
48555;BME280;34336;48.270;16.716;2023-05-22T05:21:12;109325.25;;;18.16;41.10
48555;BME280;34336;48.270;16.716;2023-05-22T05:23:39;109325.25;;;18.16;42.27
48555;BME280;34336;48.270;16.716;2023-05-22T05:26:06;109325.25;;;18.16;41.41
48555;BME280;34336;48.270;16.716;2023-05-22T05:28:33;109325.25;;;18.16;40.96
48555;BME280;34336;48.270;16.716;2023-05-22T05:31:01;109325.25;;;18.16;39.45
48555;BME280;34336;48.270;16.716;2023-05-22T05:33:48;109325.25;;;18.16;39.34
48555;BME280;34336;48.270;16.716;2023-05-22T05:36:48;109325.25;;;18.16;43.32
48555;BME280;34336;48.270;16.716;2023-05-22T05:39:16;109325.25;;;18.16;40.69
48555;BME280;34336;48.270;16.716;2023-05-22T05:41:43;109325.25;;;18.16;39.84
48555;BME280;34336;48.270;16.716;2023-05-22T05:44:10;109325.25;;;18.16;40.94
48555;BME280;34336;48.270;16.716;2023-05-22T05:46:36;109325.25;;;18.16;38.24
48555;BME280;34336;48.270;16.716;2023-05-22T05:49:06;109325.25;;;18.16;37.11
48555;BME280;34336;48.270;16.716;2023-05-22T05:51:37;109325.25;;;18.16;39.45
48555;BME280;34336;48.270;16.716;2023-05-22T05:54:04;109325.25;;;18.16;40.82
48555;BME280;34336;48.270;16.716;2023-05-22T05:56:31;109325.25;;;18.16;38.98
48555;BME280;34336;48.270;16.716;2023-05-22T05:58:59;109325.25;;;18.16;41.80
48555;BME280;34336;48.270;16.716;2023-05-22T06:01:32;109325.25;;;18.16;41.39
48555;BME280;34336;48.270;16.716;2023-05-22T06:04:02;109325.25;;;18.16;40.27
48555;BME280;34336;48.270;16.716;2023-05-22T06:06:31;109325.25;;;18.16;40.21
48555;BME280;34336;48.270;16.716;2023-05-22T06:09:13;109325.25;;;18.16;39.85
48555;BME280;34336;48.270;16.716;2023-05-22T06:12:05;109325.25;;;18.16;38.17
48555;BME280;34336;48.270;16.716;2023-05-22T06:14:32;109325.25;;;18.16;39.97
48555;BME280;34336;48.270;16.716;2023-05-22T06:16:58;109325.25;;;18.16;41.13
48555;BME280;34336;48.270;16.716;2023-05-22T06:19:25;109325.25;;;18.16;39.47
48555;BME280;34336;48.270;16.716;2023-05-22T06:21:54;109325.25;;;18.16;37.41
48555;BME280;34336;48.270;16.716;2023-05-22T06:24:20;109325.25;;;18.16;37.60
48555;BME280;34336;48.270;16.716;2023-05-22T06:26:48;109325.25;;;18.16;37.12
48555;BME280;34336;48.270;16.716;2023-05-22T06:29:14;109325.25;;;18.16;40.54
48555;BME280;34336;48.270;16.716;2023-05-22T06:31:43;109325.25;;;18.16;39.64
48555;BME280;34336;48.270;16.716;2023-05-22T06:34:11;109325.25;;;18.16;38.30
48555;BME280;34336;48.270;16.716;2023-05-22T06:36:38;109325.25;;;18.16;36.61
48555;BME280;34336;48.270;16.716;2023-05-22T06:39:05;109325.25;;;18.16;32.52
48555;BME280;34336;48.270;16.716;2023-05-22T06:41:50;109325.25;;;18.16;32.23
48555;BME280;34336;48.270;16.716;2023-05-22T06:44:17;109325.25;;;18.16;32.80
48555;BME280;34336;48.270;16.716;2023-05-22T06:46:46;109325.25;;;18.16;34.38
48555;BME280;34336;48.270;16.716;2023-05-22T06:49:20;109325.25;;;18.16;38.01
48555;BME280;34336;48.270;16.716;2023-05-22T06:51:50;109325.25;;;18.16;37.20
48555;BME280;34336;48.270;16.716;2023-05-22T06:54:17;109325.25;;;18.16;38.10
48555;BME280;34336;48.270;16.716;2023-05-22T06:56:46;109325.25;;;18.16;37.80
48555;BME280;34336;48.270;16.716;2023-05-22T06:59:15;109325.25;;;18.16;34.97
48555;BME280;34336;48.270;16.716;2023-05-22T07:02:02;109325.25;;;18.16;35.38
48555;BME280;34336;48.270;16.716;2023-05-22T07:04:58;109325.25;;;18.16;35.14
48555;BME280;34336;48.270;16.716;2023-05-22T07:07:32;109325.25;;;18.16;34.17
48555;BME280;34336;48.270;16.716;2023-05-22T07:09:59;109325.25;;;18.16;34.74
48555;BME280;34336;48.270;16.716;2023-05-22T07:12:26;109325.25;;;18.16;34.70
48555;BME280;34336;48.270;16.716;2023-05-22T07:14:54;109325.25;;;18.16;36.86
48555;BME280;34336;48.270;16.716;2023-05-22T07:17:23;109325.25;;;18.16;35.91
48555;BME280;34336;48.270;16.716;2023-05-22T07:19:49;109325.25;;;18.16;35.07
48555;BME280;34336;48.270;16.716;2023-05-22T07:22:16;109325.25;;;18.16;35.63
48555;BME280;34336;48.270;16.716;2023-05-22T07:24:46;109325.25;;;18.16;35.78
48555;BME280;34336;48.270;16.716;2023-05-22T07:27:14;109325.25;;;18.16;34.88
48555;BME280;34336;48.270;16.716;2023-05-22T07:29:43;109325.25;;;18.16;34.34
48555;BME280;34336;48.270;16.716;2023-05-22T07:32:10;109325.25;;;18.16;35.30
48555;BME280;34336;48.270;16.716;2023-05-22T07:34:37;109325.25;;;18.16;35.17
48555;BME280;34336;48.270;16.716;2023-05-22T07:37:06;109325.25;;;18.16;34.48
48555;BME280;34336;48.270;16.716;2023-05-22T07:39:34;109325.25;;;18.16;35.77
48555;BME280;34336;48.270;16.716;2023-05-22T07:42:00;109325.25;;;18.16;37.26
48555;BME280;34336;48.270;16.716;2023-05-22T07:44:30;109325.25;;;18.16;35.94
48555;BME280;34336;48.270;16.716;2023-05-22T07:46:57;109325.25;;;18.16;36.90
48555;BME280;34336;48.270;16.716;2023-05-22T07:49:27;109325.25;;;18.16;38.70
48555;BME280;34336;48.270;16.716;2023-05-22T07:51:53;109325.25;;;18.16;38.43
48555;BME280;34336;48.270;16.716;2023-05-22T07:54:23;109325.25;;;18.16;38.15
48555;BME280;34336;48.270;16.716;2023-05-22T07:56:50;109325.25;;;18.16;40.21
48555;BME280;34336;48.270;16.716;2023-05-22T07:59:20;109325.25;;;18.16;40.06
48555;BME280;34336;48.270;16.716;2023-05-22T08:01:48;109325.25;;;18.16;40.29
48555;BME280;34336;48.270;16.716;2023-05-22T08:04:15;109325.25;;;18.16;40.71
48555;BME280;34336;48.270;16.716;2023-05-22T08:06:42;109325.25;;;18.16;42.17
48555;BME280;34336;48.270;16.716;2023-05-22T08:09:09;109325.25;;;18.16;42.46
48555;BME280;34336;48.270;16.716;2023-05-22T08:11:36;109325.25;;;18.16;41.94
48555;BME280;34336;48.270;16.716;2023-05-22T08:14:05;109325.25;;;18.16;42.51
48555;BME280;34336;48.270;16.716;2023-05-22T08:16:33;109325.25;;;18.16;41.03
48555;BME280;34336;48.270;16.716;2023-05-22T08:19:00;109325.25;;;18.16;42.25
48555;BME280;34336;48.270;16.716;2023-05-22T08:21:27;109325.25;;;18.16;42.46
48555;BME280;34336;48.270;16.716;2023-05-22T08:23:53;109325.25;;;18.16;41.58
48555;BME280;34336;48.270;16.716;2023-05-22T08:26:23;109325.25;;;18.16;41.66
48555;BME280;34336;48.270;16.716;2023-05-22T08:28:50;109325.25;;;18.16;43.30
48555;BME280;34336;48.270;16.716;2023-05-22T08:31:17;109325.25;;;18.16;44.36
48555;BME280;34336;48.270;16.716;2023-05-22T08:33:44;109325.25;;;18.16;46.18
48555;BME280;34336;48.270;16.716;2023-05-22T08:36:11;109325.25;;;18.16;44.83
48555;BME280;34336;48.270;16.716;2023-05-22T08:38:38;109325.25;;;18.16;44.58
48555;BME280;34336;48.270;16.716;2023-05-22T08:41:05;109325.25;;;18.16;44.61
48555;BME280;34336;48.270;16.716;2023-05-22T08:43:33;109325.25;;;18.16;44.94
48555;BME280;34336;48.270;16.716;2023-05-22T08:46:03;109325.25;;;18.16;45.71
48555;BME280;34336;48.270;16.716;2023-05-22T08:48:30;109325.25;;;18.16;44.94
48555;BME280;34336;48.270;16.716;2023-05-22T08:51:00;109325.25;;;18.16;41.38
48555;BME280;34336;48.270;16.716;2023-05-22T08:53:27;109325.25;;;18.16;45.60
48555;BME280;34336;48.270;16.716;2023-05-22T08:55:54;109325.25;;;18.16;44.90
48555;BME280;34336;48.270;16.716;2023-05-22T08:58:21;109325.25;;;18.16;44.49
48555;BME280;34336;48.270;16.716;2023-05-22T09:00:48;109325.25;;;18.16;44.92
48555;BME280;34336;48.270;16.716;2023-05-22T09:03:15;109325.25;;;18.16;45.40
48555;BME280;34336;48.270;16.716;2023-05-22T09:05:42;109325.25;;;18.16;45.28
48555;BME280;34336;48.270;16.716;2023-05-22T09:08:10;109325.25;;;18.16;45.97
48555;BME280;34336;48.270;16.716;2023-05-22T09:10:46;109325.25;;;18.16;46.64
48555;BME280;34336;48.270;16.716;2023-05-22T09:13:22;109325.25;;;18.16;47.17
48555;BME280;34336;48.270;16.716;2023-05-22T09:15:49;109325.25;;;18.16;45.89
48555;BME280;34336;48.270;16.716;2023-05-22T09:18:15;109325.25;;;18.16;44.36
48555;BME280;34336;48.270;16.716;2023-05-22T09:20:42;109325.25;;;18.16;47.05
48555;BME280;34336;48.270;16.716;2023-05-22T09:23:09;109325.25;;;18.16;43.69
48555;BME280;34336;48.270;16.716;2023-05-22T09:25:36;109325.25;;;18.16;42.52
48555;BME280;34336;48.270;16.716;2023-05-22T09:28:03;109325.25;;;18.16;42.72
48555;BME280;34336;48.270;16.716;2023-05-22T09:30:32;109325.25;;;18.16;43.37
48555;BME280;34336;48.270;16.716;2023-05-22T09:32:59;109325.25;;;18.16;42.98
48555;BME280;34336;48.270;16.716;2023-05-22T09:35:26;109325.25;;;18.16;42.42
48555;BME280;34336;48.270;16.716;2023-05-22T09:37:55;109325.25;;;18.16;44.24
48555;BME280;34336;48.270;16.716;2023-05-22T09:40:23;109325.25;;;18.16;41.34
48555;BME280;34336;48.270;16.716;2023-05-22T09:42:49;109325.25;;;18.16;43.56
48555;BME280;34336;48.270;16.716;2023-05-22T09:45:18;109325.25;;;18.16;42.94
48555;BME280;34336;48.270;16.716;2023-05-22T09:47:47;109325.25;;;18.16;43.12
48555;BME280;34336;48.270;16.716;2023-05-22T09:50:14;109325.25;;;18.16;42.71
48555;BME280;34336;48.270;16.716;2023-05-22T09:52:40;109325.25;;;18.16;43.32
48555;BME280;34336;48.270;16.716;2023-05-22T09:55:09;109325.25;;;18.16;42.64
48555;BME280;34336;48.270;16.716;2023-05-22T09:57:40;109325.25;;;18.16;43.24
48555;BME280;34336;48.270;16.716;2023-05-22T10:00:10;109325.25;;;18.16;42.40
48555;BME280;34336;48.270;16.716;2023-05-22T10:02:40;109325.25;;;18.16;43.27
48555;BME280;34336;48.270;16.716;2023-05-22T10:05:07;109325.25;;;18.16;41.66
48555;BME280;34336;48.270;16.716;2023-05-22T10:07:35;109325.25;;;18.16;41.42
48555;BME280;34336;48.270;16.716;2023-05-22T10:10:03;109325.25;;;18.16;42.78
48555;BME280;34336;48.270;16.716;2023-05-22T10:12:32;109325.25;;;18.16;41.94
48555;BME280;34336;48.270;16.716;2023-05-22T10:15:02;109325.25;;;18.16;42.59
48555;BME280;34336;48.270;16.716;2023-05-22T10:17:32;109325.25;;;18.16;42.60
48555;BME280;34336;48.270;16.716;2023-05-22T10:19:59;109325.25;;;18.16;43.63
48555;BME280;34336;48.270;16.716;2023-05-22T10:22:27;109325.25;;;18.16;41.90
48555;BME280;34336;48.270;16.716;2023-05-22T10:24:54;109325.25;;;18.16;39.69
48555;BME280;34336;48.270;16.716;2023-05-22T10:27:21;109325.25;;;18.16;41.18
48555;BME280;34336;48.270;16.716;2023-05-22T10:29:52;109325.25;;;18.16;39.58
48555;BME280;34336;48.270;16.716;2023-05-22T10:32:32;109325.25;;;18.16;39.31
48555;BME280;34336;48.270;16.716;2023-05-22T10:35:16;109325.25;;;18.16;41.36
48555;BME280;34336;48.270;16.716;2023-05-22T10:37:52;109325.25;;;18.16;41.02
48555;BME280;34336;48.270;16.716;2023-05-22T10:42:47;109325.25;;;18.16;40.26
48555;BME280;34336;48.270;16.716;2023-05-22T10:45:13;109325.25;;;18.16;39.34
48555;BME280;34336;48.270;16.716;2023-05-22T10:47:41;109325.25;;;18.16;42.37
48555;BME280;34336;48.270;16.716;2023-05-22T10:50:09;109325.25;;;18.16;42.29
48555;BME280;34336;48.270;16.716;2023-05-22T10:52:36;109325.25;;;18.16;41.29
48555;BME280;34336;48.270;16.716;2023-05-22T10:55:07;109325.25;;;18.16;42.62
48555;BME280;34336;48.270;16.716;2023-05-22T10:57:37;109325.25;;;18.16;41.66
48555;BME280;34336;48.270;16.716;2023-05-22T11:00:05;109325.25;;;18.16;40.34
48555;BME280;34336;48.270;16.716;2023-05-22T11:02:35;109325.25;;;18.16;40.84
48555;BME280;34336;48.270;16.716;2023-05-22T11:07:48;109325.25;;;18.16;40.86
48555;BME280;34336;48.270;16.716;2023-05-22T11:10:24;109325.25;;;18.16;41.48
48555;BME280;34336;48.270;16.716;2023-05-22T11:15:39;109325.25;;;18.16;40.18
48555;BME280;34336;48.270;16.716;2023-05-22T11:18:09;109325.25;;;18.16;41.70
48555;BME280;34336;48.270;16.716;2023-05-22T11:20:37;109325.25;;;18.16;41.99
48555;BME280;34336;48.270;16.716;2023-05-22T11:23:05;109325.25;;;18.16;41.34
48555;BME280;34336;48.270;16.716;2023-05-22T11:25:33;109325.25;;;18.16;40.41
48555;BME280;34336;48.270;16.716;2023-05-22T11:28:03;109325.25;;;18.16;39.30
48555;BME280;34336;48.270;16.716;2023-05-22T11:30:31;109325.25;;;18.16;42.81
48555;BME280;34336;48.270;16.716;2023-05-22T11:32:58;109325.25;;;18.16;39.74
48555;BME280;34336;48.270;16.716;2023-05-22T11:35:25;109325.25;;;18.16;43.22
48555;BME280;34336;48.270;16.716;2023-05-22T11:37:53;109325.25;;;18.16;43.64
48555;BME280;34336;48.270;16.716;2023-05-22T11:40:21;109325.25;;;18.16;41.21
48555;BME280;34336;48.270;16.716;2023-05-22T11:42:49;109325.25;;;18.16;41.87
48555;BME280;34336;48.270;16.716;2023-05-22T11:45:16;109325.25;;;18.16;39.71
48555;BME280;34336;48.270;16.716;2023-05-22T11:47:43;109325.25;;;18.16;43.27
48555;BME280;34336;48.270;16.716;2023-05-22T11:50:10;109325.25;;;18.16;43.14
48555;BME280;34336;48.270;16.716;2023-05-22T11:52:38;109325.25;;;18.16;41.52
48555;BME280;34336;48.270;16.716;2023-05-22T11:55:05;109325.25;;;18.16;42.48
48555;BME280;34336;48.270;16.716;2023-05-22T11:57:33;109325.25;;;18.16;40.74
48555;BME280;34336;48.270;16.716;2023-05-22T12:00:00;109325.25;;;18.16;41.42
48555;BME280;34336;48.270;16.716;2023-05-22T12:02:37;109325.25;;;18.16;40.84
48555;BME280;34336;48.270;16.716;2023-05-22T12:05:03;109325.25;;;18.16;40.24
48555;BME280;34336;48.270;16.716;2023-05-22T12:07:30;109325.25;;;18.16;44.31
48555;BME280;34336;48.270;16.716;2023-05-22T12:09:57;109325.25;;;18.16;42.67
48555;BME280;34336;48.270;16.716;2023-05-22T12:12:24;109325.25;;;18.16;42.56
48555;BME280;34336;48.270;16.716;2023-05-22T12:14:51;109325.25;;;18.16;41.82
48555;BME280;34336;48.270;16.716;2023-05-22T12:17:18;109325.25;;;18.16;39.15
48555;BME280;34336;48.270;16.716;2023-05-22T12:19:44;109325.25;;;18.16;39.75
48555;BME280;34336;48.270;16.716;2023-05-22T12:22:14;109325.25;;;18.16;38.91
48555;BME280;34336;48.270;16.716;2023-05-22T12:24:41;109325.25;;;18.16;39.18
48555;BME280;34336;48.270;16.716;2023-05-22T12:27:11;109325.25;;;18.16;40.53
48555;BME280;34336;48.270;16.716;2023-05-22T12:29:38;109325.25;;;18.16;40.32
48555;BME280;34336;48.270;16.716;2023-05-22T12:32:06;109325.25;;;18.16;40.53
48555;BME280;34336;48.270;16.716;2023-05-22T12:34:45;109325.25;;;18.16;39.74
48555;BME280;34336;48.270;16.716;2023-05-22T12:37:22;109325.25;;;18.16;38.04
48555;BME280;34336;48.270;16.716;2023-05-22T12:39:57;109325.25;;;18.16;36.64
48555;BME280;34336;48.270;16.716;2023-05-22T12:42:27;109325.25;;;18.16;39.55
48555;BME280;34336;48.270;16.716;2023-05-22T12:44:54;109325.25;;;18.16;37.39
48555;BME280;34336;48.270;16.716;2023-05-22T12:47:21;109325.25;;;18.16;38.60
48555;BME280;34336;48.270;16.716;2023-05-22T12:49:48;109325.25;;;18.16;36.71
48555;BME280;34336;48.270;16.716;2023-05-22T12:52:15;109325.25;;;18.16;38.33
48555;BME280;34336;48.270;16.716;2023-05-22T12:54:42;109325.25;;;18.16;40.00
48555;BME280;34336;48.270;16.716;2023-05-22T12:57:08;109325.25;;;18.16;39.84
48555;BME280;34336;48.270;16.716;2023-05-22T12:59:35;109325.25;;;18.16;39.24
48555;BME280;34336;48.270;16.716;2023-05-22T13:02:04;109325.25;;;18.16;39.32
48555;BME280;34336;48.270;16.716;2023-05-22T13:04:31;109325.25;;;18.16;38.98
48555;BME280;34336;48.270;16.716;2023-05-22T13:06:58;109325.25;;;18.16;40.24
48555;BME280;34336;48.270;16.716;2023-05-22T13:09:25;109325.25;;;18.16;42.30